createdAt,value
2023-03-25T00:03:50.623Z,6.90
2023-03-25T00:08:53.771Z,7.20
2023-03-25T00:13:56.409Z,11.50
2023-03-25T00:19:02.141Z,5.80
2023-03-25T00:24:04.845Z,5.97
2023-03-25T00:29:07.510Z,7.03
2023-03-25T00:34:14.269Z,10.38
2023-03-25T00:39:16.944Z,9.87
2023-03-25T00:44:19.622Z,9.87
2023-03-25T00:49:25.191Z,7.75
2023-03-25T00:54:27.756Z,6.07
2023-03-25T00:59:30.389Z,9.60
2023-03-25T01:04:39.463Z,12.47
2023-03-25T01:09:46.863Z,15.63
2023-03-25T01:14:49.670Z,15.57
2023-03-25T01:19:52.168Z,11.80
2023-03-25T01:24:54.624Z,9.93
2023-03-25T01:29:57.911Z,9.53
2023-03-25T01:35:00.490Z,13.63
2023-03-25T01:40:05.529Z,9.67
2023-03-25T01:45:30.119Z,9.03
2023-03-25T01:50:34.649Z,17.83
2023-03-25T01:55:38.695Z,10.63
2023-03-25T02:00:46.104Z,11.67
2023-03-25T02:06:03.644Z,9.73
2023-03-25T02:11:07.345Z,10.03
2023-03-25T02:16:34.587Z,12.20
2023-03-25T02:22:07.574Z,8.27
2023-03-25T02:27:27.917Z,9.20
2023-03-25T02:32:49.141Z,12.50
2023-03-25T02:38:06.465Z,7.33
2023-03-25T02:43:27.560Z,9.37
2023-03-25T02:48:39.723Z,8.40
2023-03-25T02:53:46.919Z,8.90
2023-03-25T02:58:50.511Z,10.57
2023-03-25T03:03:54.421Z,8.70
2023-03-25T03:09:20.006Z,9.10
2023-03-25T03:14:37.535Z,7.67
2023-03-25T03:19:52.112Z,9.63
2023-03-25T03:25:22.882Z,13.37
2023-03-25T03:30:48.776Z,12.97
2023-03-25T03:35:57.738Z,11.90
2023-03-25T03:41:06.481Z,12.60
2023-03-25T03:46:27.162Z,9.70
2023-03-25T03:51:40.449Z,8.27
2023-03-25T03:56:53.697Z,10.80
2023-03-25T04:01:59.844Z,13.93
2023-03-25T04:07:22.626Z,7.53
2023-03-25T04:12:33.249Z,7.10
2023-03-25T04:17:35.860Z,10.40
2023-03-25T04:22:38.607Z,10.43
2023-03-25T04:27:41.332Z,17.03
2023-03-25T04:32:47.102Z,20.87
2023-03-25T04:37:49.574Z,18.70
2023-03-25T04:42:53.404Z,21.13
2023-03-25T04:47:56.007Z,9.03
2023-03-25T04:53:00.454Z,9.00
2023-03-25T04:58:03.004Z,9.97
2023-03-25T05:03:05.655Z,10.97
2023-03-25T05:08:08.559Z,7.60
2023-03-25T05:13:11.257Z,8.37
2023-03-25T05:18:16.179Z,10.53
2023-03-25T05:23:18.926Z,9.63
2023-03-25T05:28:21.392Z,7.73
2023-03-25T05:33:24.026Z,10.33
2023-03-25T05:38:26.649Z,8.70
2023-03-25T05:43:29.194Z,9.17
2023-03-25T05:48:33.244Z,6.30
2023-03-25T05:53:35.806Z,6.67
2023-03-25T05:58:39.422Z,6.03
2023-03-25T06:03:43.271Z,6.30
2023-03-25T06:08:50.182Z,3.70
2023-03-25T06:13:53.237Z,4.53
2023-03-25T06:19:02.560Z,4.03
2023-03-25T06:24:09.037Z,8.17
2023-03-25T06:29:14.462Z,6.10
2023-03-25T06:34:17.069Z,6.67
2023-03-25T06:39:20.020Z,8.80
2023-03-25T06:44:26.269Z,4.40
2023-03-25T06:49:40.812Z,6.50
2023-03-25T06:54:43.322Z,5.37
2023-03-25T06:59:47.458Z,8.60
2023-03-25T07:04:50.289Z,5.43
2023-03-25T07:09:55.219Z,6.23
2023-03-25T07:14:58.203Z,5.57
2023-03-25T07:20:01.964Z,5.90
2023-03-25T07:25:04.705Z,3.60
2023-03-25T07:30:08.126Z,4.60
2023-03-25T07:35:10.735Z,5.47
2023-03-25T07:40:13.616Z,3.67
2023-03-25T07:45:16.235Z,7.10
2023-03-25T07:50:25.049Z,4.57
2023-03-25T07:55:28.159Z,6.93
2023-03-25T08:00:30.808Z,5.33
2023-03-25T08:05:33.354Z,5.03
2023-03-25T08:10:35.956Z,4.33
2023-03-25T08:15:39.302Z,5.00
2023-03-25T08:20:42.041Z,2.93
2023-03-25T08:25:45.392Z,4.07
2023-03-25T08:30:49.408Z,5.53
2023-03-25T08:35:54.056Z,2.73
2023-03-25T08:40:57.120Z,4.10
2023-03-25T08:45:59.725Z,2.47
2023-03-25T08:51:02.651Z,2.53
2023-03-25T08:56:05.639Z,2.80
2023-03-25T09:01:08.172Z,2.28
2023-03-25T09:06:10.823Z,3.37
2023-03-25T09:11:18.059Z,2.27
2023-03-25T09:16:24.685Z,2.17
2023-03-25T09:21:27.929Z,2.77
2023-03-25T09:26:30.680Z,1.37
2023-03-25T09:31:33.705Z,3.67
2023-03-25T09:36:37.317Z,5.33
2023-03-25T09:41:51.494Z,4.27
2023-03-25T09:46:55.222Z,2.20
2023-03-25T09:51:58.207Z,2.93
2023-03-25T09:57:03.662Z,1.63
2023-03-25T10:02:12.591Z,1.83
2023-03-25T10:07:15.612Z,2.13
2023-03-25T10:12:24.355Z,2.10
2023-03-25T10:17:33.264Z,2.33
2023-03-25T10:22:50.597Z,3.67
2023-03-25T10:27:53.800Z,4.00
2023-03-25T10:32:57.718Z,4.97
2023-03-25T10:38:13.949Z,3.33
2023-03-25T10:43:26.627Z,2.97
2023-03-25T10:48:30.612Z,4.30
2023-03-25T10:53:33.489Z,4.67
2023-03-25T10:58:37.874Z,4.20
2023-03-25T11:03:41.486Z,3.60
2023-03-25T11:08:57.560Z,2.57
2023-03-25T11:14:00.908Z,1.10
2023-03-25T11:19:04.844Z,4.50
2023-03-25T11:24:08.373Z,3.17
2023-03-25T11:29:16.234Z,1.40
2023-03-25T11:34:24.172Z,1.20
2023-03-25T11:39:35.140Z,3.70
2023-03-25T11:44:37.878Z,2.90
2023-03-25T11:49:41.668Z,2.10
2023-03-25T11:54:45.474Z,2.53
2023-03-25T11:59:49.861Z,1.47
2023-03-25T12:05:02.671Z,3.10
2023-03-25T12:10:06.580Z,1.60
2023-03-25T12:15:45.749Z,2.97
2023-03-25T12:20:54.242Z,3.20
2023-03-25T12:26:10.866Z,0.97
2023-03-25T12:31:37.127Z,2.20
2023-03-25T12:37:01.914Z,3.07
2023-03-25T12:42:18.673Z,1.50
2023-03-25T12:47:29.163Z,1.27
2023-03-25T12:52:37.542Z,3.90
2023-03-25T12:57:42.847Z,1.57
2023-03-25T13:03:12.685Z,2.40
2023-03-25T13:08:24.291Z,1.77
2023-03-25T13:13:30.040Z,2.17
2023-03-25T13:18:54.139Z,2.10
2023-03-25T13:24:02.076Z,2.10
2023-03-25T13:29:10.456Z,0.93
2023-03-25T13:34:26.225Z,3.63
2023-03-25T13:39:47.438Z,2.80
2023-03-25T13:44:54.738Z,7.73
2023-03-25T13:50:14.602Z,3.50
2023-03-25T13:55:22.835Z,3.40
2023-03-25T14:01:03.359Z,1.23
2023-03-25T14:06:15.123Z,4.77
2023-03-25T14:11:17.597Z,1.67
2023-03-25T14:16:28.000Z,0.73
2023-03-25T14:21:42.016Z,0.60
2023-03-25T14:26:50.005Z,1.40
2023-03-25T14:32:22.022Z,2.63
2023-03-25T14:37:28.765Z,1.53
2023-03-25T14:42:59.679Z,1.90
2023-03-25T14:48:19.498Z,6.17
2023-03-25T14:53:28.478Z,4.23
2023-03-25T14:58:31.783Z,4.00
2023-03-25T15:03:37.866Z,3.00
2023-03-25T15:08:45.074Z,5.70
2023-03-25T15:13:53.367Z,5.43
2023-03-25T15:18:56.059Z,3.50
2023-03-25T15:24:07.044Z,3.83
2023-03-25T15:29:48.847Z,5.27
2023-03-25T15:35:37.111Z,5.17
2023-03-25T15:41:17.384Z,4.03
2023-03-25T15:46:49.914Z,6.23
2023-03-25T15:52:11.684Z,7.03
2023-03-25T15:57:20.237Z,3.33
2023-03-25T16:02:40.666Z,5.23
2023-03-25T16:07:44.226Z,4.20
2023-03-25T16:12:49.093Z,5.80
2023-03-25T16:17:52.632Z,5.40
2023-03-25T16:22:57.892Z,7.53
2023-03-25T16:28:02.606Z,7.00
2023-03-25T16:33:14.010Z,5.23
2023-03-25T16:38:20.329Z,6.50
2023-03-25T16:43:24.657Z,9.10
2023-03-25T16:48:31.425Z,13.17
2023-03-25T16:53:39.966Z,10.27
2023-03-25T16:59:00.192Z,6.00
2023-03-25T17:04:11.584Z,6.00
2023-03-25T17:09:20.920Z,5.50
2023-03-25T17:14:29.846Z,2.53
2023-03-25T17:19:32.555Z,4.07
2023-03-25T17:24:44.260Z,5.47
2023-03-25T17:30:00.756Z,6.83
2023-03-25T17:35:25.575Z,3.13
2023-03-25T17:40:28.787Z,3.03
2023-03-25T17:45:31.375Z,2.65
2023-03-25T17:50:33.832Z,3.57
2023-03-25T17:55:37.202Z,3.07
2023-03-25T18:00:40.608Z,3.60
2023-03-25T18:05:43.363Z,2.50
2023-03-25T18:10:46.212Z,6.30
2023-03-25T18:15:49.154Z,5.07
2023-03-25T18:20:53.261Z,5.20
2023-03-25T18:25:56.884Z,8.37
2023-03-25T18:30:59.664Z,4.33
2023-03-25T18:36:02.358Z,5.23
2023-03-25T18:41:05.424Z,5.83
2023-03-25T18:46:13.115Z,12.00
2023-03-25T18:51:17.852Z,18.50
2023-03-25T18:56:20.759Z,17.80
2023-03-25T19:01:25.266Z,4.83
2023-03-25T19:06:30.858Z,2.53
2023-03-25T19:11:35.745Z,4.82
2023-03-25T19:16:38.408Z,5.67
2023-03-25T19:21:42.221Z,6.03
2023-03-25T19:26:44.789Z,6.20
2023-03-25T19:31:47.837Z,7.20
2023-03-25T19:36:50.798Z,7.27
2023-03-25T19:41:53.567Z,8.80
2023-03-25T19:46:56.119Z,10.67
2023-03-25T19:51:58.599Z,11.27
2023-03-25T19:57:01.575Z,11.80
2023-03-25T20:02:04.474Z,24.50
2023-03-25T20:07:07.150Z,17.73
2023-03-25T20:12:09.894Z,17.33
2023-03-25T20:17:12.478Z,17.27
2023-03-25T20:27:22.979Z,17.50
2023-03-25T20:32:39.324Z,15.70
2023-03-25T20:37:44.607Z,14.30
2023-03-25T20:42:48.929Z,15.73
2023-03-25T20:47:52.109Z,12.07
2023-03-25T20:52:54.767Z,7.27
2023-03-25T20:57:57.251Z,8.00
2023-03-25T21:02:59.913Z,12.60
2023-03-25T21:08:02.834Z,6.77
2023-03-25T21:13:05.387Z,6.80
2023-03-25T21:18:09.164Z,9.27
2023-03-25T21:23:11.827Z,5.33
2023-03-25T21:28:14.415Z,4.83
2023-03-25T21:33:17.341Z,4.53
2023-03-25T21:38:28.832Z,3.63
2023-03-25T21:43:33.502Z,5.90
2023-03-25T21:48:40.148Z,4.97
2023-03-25T21:53:45.344Z,6.80
2023-03-25T21:58:49.004Z,4.73
2023-03-25T22:03:55.415Z,5.50
2023-03-25T22:09:11.546Z,4.50
2023-03-25T22:14:14.165Z,3.70
2023-03-25T22:19:16.905Z,6.20
2023-03-25T22:24:19.457Z,5.63
2023-03-25T22:29:22.019Z,6.10
2023-03-25T22:34:24.696Z,6.67
2023-03-25T22:39:28.386Z,4.13
2023-03-25T22:44:31.200Z,5.33
2023-03-25T22:49:33.717Z,4.63
2023-03-25T22:54:36.403Z,6.47
2023-03-25T22:59:39.275Z,4.93
2023-03-25T23:04:41.738Z,5.57
2023-03-25T23:09:45.053Z,7.33
2023-03-25T23:14:54.483Z,4.00
2023-03-25T23:19:57.165Z,5.43
2023-03-25T23:24:59.878Z,5.20
2023-03-25T23:30:05.106Z,2.33
2023-03-25T23:35:08.176Z,2.28
2023-03-25T23:40:12.562Z,1.53
2023-03-25T23:45:15.701Z,2.47
2023-03-25T23:50:19.390Z,6.70
2023-03-25T23:55:23.495Z,4.87
